.
WxDataArchive / Data Records for 2009-07-29
2009-07-28 July 2009 2009-07-30

Data Records for Wednesday, 29 July 2009

Time	Temp	Chill	HIndex	Humid	Dewpt	 Wind 	HiWind	WindDir	Rain 	Barom 
-----	----	-----	------	-----	-----	------	------	-------	-----	----- 
00:00	69.8	69.8	69.8	95	68.3	0	1	112	0.00	29.794 
00:05	69.6	69.6	69.6	95	68.1	0	0	---	0.00	29.794 
00:10	69.6	69.6	69.6	95	68.1	0	2	112	0.00	29.794 
00:15	69.3	69.3	69.3	95	67.8	0	2	112	0.00	29.806 
00:20	69.1	69.1	69.1	95	67.6	0	1	112	0.00	29.806 
00:25	69.1	69.1	69.1	95	67.6	0	1	112	0.00	29.806 
00:30	68.8	68.8	68.8	95	67.3	1	3	248	0.02	29.838 
00:35	68.6	68.6	68.6	95	67.1	1	3	248	0.08	29.838 
00:40	68.6	68.6	68.6	95	67.1	1	4	248	0.16	29.838 
00:45	67.9	67.9	67.9	95	66.4	2	6	270	0.09	29.844 
00:50	67.4	67.4	67.4	95	65.9	1	4	248	0.05	29.844 
00:55	67.3	67.3	67.3	95	65.8	0	2	270	0.05	29.844 
01:00	67.1	67.1	67.1	95	65.6	0	2	270	0.05	29.836 
01:05	66.9	66.9	66.9	95	65.4	0	1	270	0.08	29.836 
01:10	66.9	66.9	66.9	95	65.4	0	0	---	0.04	29.836 
01:15	66.8	66.8	66.8	95	65.3	0	0	---	0.02	29.819 
01:20	66.8	66.8	66.8	95	65.3	0	0	---	0.02	29.819 
01:25	66.8	66.8	66.8	95	65.3	0	0	---	0.01	29.819 
01:30	66.8	66.8	66.8	95	65.3	0	0	---	0.02	29.803 
01:35	66.8	66.8	66.8	96	65.6	0	1	270	0.02	29.803 
01:40	66.9	66.9	66.9	96	65.7	0	1	270	0.03	29.803 
01:45	66.9	66.9	66.9	96	65.7	0	2	270	0.02	29.796 
01:50	66.9	66.9	66.9	96	65.7	1	3	270	0.00	29.796 
01:55	66.9	66.9	66.9	96	65.7	1	4	90	0.01	29.796 
02:00	66.8	66.8	66.8	96	65.6	0	0	---	0.00	29.776 
02:05	66.8	66.8	66.8	96	65.6	0	0	---	0.00	29.776 
02:10	66.6	66.6	66.6	96	65.4	0	0	---	0.00	29.776 
02:15	66.6	66.6	66.6	96	65.4	0	0	---	0.00	29.761 
02:20	66.4	66.4	66.4	96	65.2	0	0	---	0.00	29.761 
02:25	66.4	66.4	66.4	96	65.2	0	0	---	0.00	29.761 
02:30	66.4	66.4	66.4	96	65.2	0	0	---	0.00	29.763 
02:35	66.3	66.3	66.3	96	65.1	0	0	---	0.00	29.763 
02:40	66.3	66.3	66.3	96	65.1	0	0	---	0.00	29.763 
02:45	66.1	66.1	66.1	96	64.9	0	0	---	0.00	29.759 
02:50	66.0	66.0	66.0	96	64.8	0	0	---	0.00	29.759 
02:55	66.0	66.0	66.0	96	64.8	0	0	---	0.00	29.759 
03:00	65.8	65.8	65.8	96	64.6	0	0	---	0.00	29.758 
03:05	65.8	65.8	65.8	96	64.6	0	0	---	0.00	29.758 
03:10	65.6	65.6	65.6	96	64.4	0	0	---	0.00	29.758 
03:15	65.5	65.5	65.5	96	64.3	0	0	---	0.00	29.761 
03:20	65.5	65.5	65.5	96	64.3	0	0	---	0.00	29.761 
03:25	65.6	65.6	65.6	96	64.4	0	1	90	0.00	29.761 
03:30	65.6	65.6	65.6	96	64.4	0	0	---	0.00	29.762 
03:35	65.8	65.8	65.8	96	64.6	0	1	90	0.00	29.762 
03:40	65.8	65.8	65.8	96	64.6	0	0	---	0.00	29.762 
03:45	66.0	66.0	66.0	96	64.8	0	1	90	0.00	29.766 
03:50	65.8	65.8	65.8	96	64.6	0	1	90	0.00	29.766 
03:55	66.0	66.0	66.0	96	64.8	0	1	90	0.00	29.766 
04:00	66.0	66.0	66.0	96	64.8	0	1	90	0.00	29.761 
04:05	66.0	66.0	66.0	96	64.8	0	1	90	0.00	29.761 
04:10	66.0	66.0	66.0	96	64.8	0	1	90	0.00	29.761 
04:15	66.1	66.1	66.1	96	64.9	0	2	90	0.00	29.757 
04:20	66.1	66.1	66.1	96	64.9	0	2	90	0.00	29.757 
04:25	66.1	66.1	66.1	96	64.9	0	1	90	0.00	29.757 
04:30	66.1	66.1	66.1	96	64.9	0	1	90	0.00	29.757 
04:35	66.1	66.1	66.1	96	64.9	0	0	---	0.00	29.757 
04:40	66.0	66.0	66.0	96	64.8	0	0	---	0.00	29.757 
04:45	66.0	66.0	66.0	96	64.8	0	0	---	0.00	29.757 
04:50	66.0	66.0	66.0	96	64.8	0	0	---	0.00	29.757 
04:55	66.0	66.0	66.0	96	64.8	0	0	---	0.00	29.757 
05:00	66.0	66.0	66.0	96	64.8	0	0	---	0.00	29.755 
05:05	65.8	65.8	65.8	96	64.6	0	0	---	0.00	29.755 
05:10	65.8	65.8	65.8	96	64.6	0	0	---	0.00	29.755 
05:15	65.8	65.8	65.8	96	64.6	0	0	---	0.00	29.758 
05:20	65.8	65.8	65.8	96	64.6	0	0	---	0.00	29.758 
05:25	65.8	65.8	65.8	96	64.6	0	0	---	0.00	29.758 
05:30	65.8	65.8	65.8	96	64.6	0	0	---	0.00	29.762 
05:35	66.0	66.0	66.0	96	64.8	0	0	---	0.00	29.762 
05:40	66.0	66.0	66.0	96	64.8	0	0	---	0.00	29.762 
05:45	66.0	66.0	66.0	96	64.8	0	0	---	0.00	29.760 
05:50	66.0	66.0	66.0	96	64.8	0	0	---	0.00	29.760 
05:55	66.0	66.0	66.0	96	64.8	0	0	---	0.00	29.760 
06:00	66.0	66.0	66.0	96	64.8	0	0	---	0.00	29.761 
06:05	65.8	65.8	65.8	96	64.6	0	0	---	0.00	29.761 
06:10	65.8	65.8	65.8	96	64.6	0	0	---	0.00	29.761 
06:15	65.8	65.8	65.8	96	64.6	0	0	---	0.00	29.768 
06:20	65.8	65.8	65.8	96	64.6	0	0	---	0.00	29.768 
06:25	65.8	65.8	65.8	96	64.6	0	0	---	0.00	29.768 
06:30	65.8	65.8	65.8	97	64.9	0	0	---	0.00	29.766 
06:35	65.8	65.8	65.8	97	64.9	0	0	---	0.00	29.766 
06:40	65.8	65.8	65.8	97	64.9	0	0	---	0.00	29.766 
06:45	65.6	65.6	65.6	97	64.7	0	0	---	0.00	29.768 
06:50	65.6	65.6	65.6	97	64.7	0	0	---	0.00	29.768 
06:55	65.6	65.6	65.6	97	64.7	0	0	---	0.00	29.768 
07:00	65.6	65.6	65.6	97	64.7	0	0	---	0.00	29.770 
07:05	65.6	65.6	65.6	97	64.7	0	0	---	0.00	29.770 
07:10	65.6	65.6	65.6	97	64.7	0	0	---	0.00	29.770 
07:15	65.8	65.8	65.8	97	64.9	0	0	---	0.00	29.775 
07:20	65.8	65.8	65.8	97	64.9	0	0	---	0.00	29.775 
07:25	66.0	66.0	66.0	97	65.1	0	0	---	0.00	29.775 
07:30	66.0	66.0	66.0	97	65.1	0	0	---	0.00	29.781 
07:35	66.1	66.1	66.1	97	65.2	0	0	---	0.00	29.781 
07:40	66.1	66.1	66.1	97	65.2	0	0	---	0.00	29.781 
07:45	66.3	66.3	66.3	97	65.4	0	0	---	0.00	29.781 
07:50	66.3	66.3	66.3	97	65.4	0	0	---	0.00	29.781 
07:55	66.3	66.3	66.3	97	65.4	0	0	---	0.00	29.781 
08:00	66.4	66.4	66.4	97	65.5	0	0	---	0.00	29.781 
08:05	66.4	66.4	66.4	97	65.5	0	0	---	0.00	29.781 
08:10	66.6	66.6	66.6	97	65.7	0	0	---	0.00	29.781 
08:15	66.8	66.8	66.8	97	65.9	0	0	---	0.00	29.784 
08:20	66.8	66.8	66.8	97	65.9	0	0	---	0.00	29.784 
08:25	66.9	66.9	66.9	97	66.0	0	0	---	0.00	29.784 
08:30	66.9	66.9	66.9	97	66.0	0	1	90	0.00	29.782 
08:35	66.9	66.9	66.9	97	66.0	0	0	---	0.00	29.782 
08:40	66.9	66.9	66.9	97	66.0	0	0	---	0.00	29.782 
08:45	66.9	66.9	66.9	97	66.0	0	0	---	0.00	29.783 
08:50	66.9	66.9	66.9	97	66.0	0	1	90	0.00	29.783 
08:55	66.9	66.9	66.9	97	66.0	0	1	90	0.00	29.783 
09:00	67.1	67.1	67.1	97	66.2	0	1	90	0.00	29.784 
09:05	67.1	67.1	67.1	97	66.2	0	1	90	0.00	29.784 
09:10	67.1	67.1	67.1	97	66.2	0	0	---	0.00	29.784 
09:15	67.3	67.3	67.3	97	66.4	0	1	90	0.00	29.784 
09:20	67.3	67.3	67.3	97	66.4	0	2	90	0.00	29.784 
09:25	67.3	67.3	67.3	97	66.4	0	0	---	0.00	29.784 
09:30	67.4	67.4	67.4	97	66.5	0	0	---	0.00	29.784 
09:35	67.3	67.3	67.3	97	66.4	0	1	90	0.00	29.784 
09:40	67.3	67.3	67.3	97	66.4	0	0	---	0.00	29.784 
09:45	67.3	67.3	67.3	97	66.4	0	0	---	0.00	29.786 
09:50	67.3	67.3	67.3	97	66.4	0	0	---	0.00	29.786 
09:55	67.4	67.4	67.4	97	66.5	0	0	---	0.00	29.786 
10:00	67.6	67.6	67.6	97	66.7	0	0	---	0.00	29.782 
10:05	67.8	67.8	67.8	97	66.9	0	0	---	0.00	29.782 
10:10	67.6	67.6	67.6	97	66.7	0	0	---	0.00	29.782 
10:15	67.8	67.8	67.8	97	66.9	0	0	---	0.00	29.784 
10:20	67.6	67.6	67.6	96	66.4	0	1	90	0.00	29.784 
10:25	67.8	67.8	67.8	97	66.9	0	1	90	0.00	29.784 
10:30	68.1	68.1	68.1	97	67.2	0	1	90	0.00	29.786 
10:35	68.3	68.3	68.3	96	67.1	0	1	90	0.00	29.786 
10:40	68.4	68.4	68.4	96	67.2	0	1	90	0.00	29.786 
10:45	68.6	68.6	68.6	96	67.4	0	1	90	0.00	29.788 
10:50	68.6	68.6	68.6	96	67.4	0	0	---	0.00	29.788 
10:55	68.6	68.6	68.6	96	67.4	0	1	90	0.00	29.788 
11:00	68.6	68.6	68.6	96	67.4	0	1	90	0.00	29.791 
11:05	68.6	68.6	68.6	96	67.4	0	1	90	0.00	29.791 
11:10	68.6	68.6	68.6	96	67.4	0	2	90	0.00	29.791 
11:15	68.6	68.6	68.6	95	67.1	0	1	90	0.00	29.789 
11:20	68.6	68.6	68.6	95	67.1	0	1	90	0.00	29.789 
11:25	69.1	69.1	69.1	95	67.6	0	1	90	0.00	29.789 
11:30	69.4	69.4	69.4	94	67.6	0	1	90	0.00	29.792 
11:35	69.9	69.9	69.9	94	68.1	0	1	90	0.00	29.792 
11:40	70.3	70.3	70.3	92	67.9	0	1	90	0.00	29.792 
11:45	70.4	70.4	70.4	92	68.0	0	0	---	0.00	29.791 
11:50	70.6	70.6	70.6	91	67.8	0	1	90	0.00	29.791 
11:55	70.6	70.6	70.6	90	67.5	0	1	90	0.00	29.791 
12:00	70.8	70.8	70.8	89	67.4	0	1	90	0.00	29.793 
12:05	70.9	70.9	70.9	88	67.2	0	2	90	0.00	29.793 
12:10	71.5	71.5	71.5	87	67.4	0	2	90	0.00	29.793 
12:15	72.0	72.0	72.0	86	67.6	0	1	90	0.00	29.795 
12:20	72.5	72.5	72.5	86	68.1	0	1	90	0.00	29.795 
12:25	72.5	72.5	72.5	84	67.4	0	1	90	0.00	29.795 
12:30	72.5	72.5	72.5	84	67.4	0	0	---	0.00	29.796 
12:35	72.3	72.3	72.3	84	67.2	0	1	90	0.00	29.796 
12:40	72.1	72.1	72.1	84	67.0	0	1	90	0.00	29.796 
12:45	71.6	71.6	71.6	84	66.5	0	1	90	0.01	29.800 
12:50	71.5	71.5	71.5	85	66.7	0	0	---	0.00	29.800 
12:55	71.5	71.5	71.5	85	66.7	0	1	90	0.00	29.800 
13:00	71.6	71.6	71.6	86	67.2	0	0	---	0.00	29.801 
13:05	72.0	72.0	72.0	85	67.2	0	1	90	0.00	29.801 
13:10	72.3	72.3	72.3	83	66.8	0	2	90	0.00	29.801 
13:15	72.7	72.7	72.7	82	66.9	0	1	90	0.00	29.801 
13:20	73.0	73.0	73.0	77	65.3	0	1	0	0.00	29.801 
13:25	73.5	73.5	73.5	77	65.8	0	1	0	0.00	29.801 
13:30	73.9	73.9	73.9	75	65.5	0	2	0	0.00	29.800 
13:35	74.7	74.7	74.7	75	66.2	1	3	338	0.00	29.800 
13:40	75.4	75.4	76.7	74	66.5	0	2	292	0.00	29.800 
13:45	75.8	75.8	77.4	70	65.3	1	2	315	0.00	29.798 
13:50	75.6	75.6	77.3	69	64.7	1	3	315	0.00	29.798 
13:55	75.4	75.4	77.3	67	63.7	1	2	315	0.00	29.798 
14:00	75.8	75.8	77.7	66	63.6	1	3	315	0.00	29.802 
14:05	76.1	76.1	77.9	66	63.9	1	3	315	0.00	29.802 
14:10	76.7	76.7	78.5	65	64.0	1	4	292	0.00	29.802 
14:15	76.7	76.7	78.5	62	62.7	1	4	292	0.00	29.798 
14:20	76.7	76.7	78.5	63	63.1	1	4	292	0.00	29.798 
14:25	76.5	76.5	78.3	63	62.9	1	3	292	0.00	29.798 
14:30	76.5	76.5	78.3	63	62.9	1	3	292	0.00	29.800 
14:35	76.3	76.3	78.2	61	61.8	1	3	315	0.00	29.800 
14:40	76.5	76.5	78.4	60	61.6	1	4	270	0.00	29.800 
14:45	76.7	76.7	78.5	59	61.3	1	3	292	0.00	29.801 
14:50	77.0	77.0	78.8	61	62.5	0	2	292	0.00	29.801 
14:55	77.4	77.4	79.1	59	61.9	1	3	292	0.00	29.801 
15:00	76.8	76.8	78.6	58	60.9	1	4	292	0.00	29.805 
15:05	76.3	76.3	78.2	59	60.9	1	3	202	0.00	29.805 
15:10	76.1	76.1	78.1	59	60.7	1	4	292	0.00	29.805 
15:15	76.7	76.7	78.5	62	62.7	1	3	270	0.00	29.803 
15:20	77.6	77.6	79.3	60	62.6	1	2	270	0.00	29.803 
15:25	78.5	78.5	80.0	57	62.0	0	2	338	0.00	29.803 
15:30	78.5	78.5	79.8	53	59.9	1	4	315	0.00	29.805 
15:35	77.7	77.7	79.2	55	60.2	2	4	292	0.00	29.805 
15:40	77.7	77.7	79.2	55	60.2	1	4	315	0.00	29.805 
15:45	77.6	77.6	79.2	56	60.6	1	3	292	0.00	29.802 
15:50	77.7	77.7	79.3	57	61.2	1	4	270	0.00	29.802 
15:55	77.7	77.7	79.2	55	60.2	1	4	315	0.00	29.802 
16:00	77.7	77.7	79.2	54	59.7	2	4	315	0.00	29.807 
16:05	76.8	76.8	78.5	53	58.4	2	4	315	0.00	29.807 
16:10	77.0	77.0	78.7	55	59.6	1	3	270	0.00	29.807 
16:15	77.7	77.7	79.2	55	60.2	1	3	315	0.00	29.803 
16:20	78.3	78.3	79.7	54	60.3	0	2	315	0.00	29.803 
16:25	78.5	78.5	79.8	54	60.4	1	3	292	0.00	29.803 
16:30	78.6	78.6	80.0	56	61.6	1	4	292	0.00	29.804 
16:35	78.3	78.3	79.7	54	60.3	1	4	292	0.00	29.804 
16:40	77.9	77.9	79.3	53	59.4	1	5	292	0.00	29.804 
16:45	78.1	78.1	79.4	52	59.0	1	3	248	0.00	29.802 
16:50	78.1	78.1	79.4	51	58.5	1	3	270	0.00	29.802 
16:55	78.5	78.5	79.7	52	59.4	2	4	315	0.00	29.802 
17:00	78.3	78.3	79.4	50	58.1	2	5	315	0.00	29.807 
17:05	78.1	78.1	79.4	52	59.0	1	3	315	0.00	29.807 
17:10	77.4	77.4	78.9	53	58.9	0	4	338	0.00	29.807 
17:15	77.7	77.7	79.2	53	59.2	0	2	292	0.00	29.803 
17:20	77.9	77.9	79.1	49	57.2	1	5	292	0.00	29.803 
17:25	77.7	77.7	79.0	49	57.0	1	4	292	0.00	29.803 
17:30	77.6	77.6	78.9	49	56.9	1	3	292	0.00	29.805 
17:35	77.9	77.9	79.2	51	58.3	1	4	292	0.00	29.805 
17:40	78.1	78.1	79.4	51	58.5	1	2	292	0.00	29.805 
17:45	78.1	78.1	79.3	49	57.4	1	3	315	0.00	29.804 
17:50	77.6	77.6	79.0	52	58.6	1	3	270	0.00	29.804 
17:55	77.2	77.2	78.8	52	58.2	0	1	270	0.00	29.804 
18:00	77.6	77.6	79.0	51	58.0	1	6	248	0.00	29.806 
18:05	77.9	77.9	79.1	48	56.6	1	3	292	0.00	29.806 
18:10	77.7	77.7	78.9	47	55.8	1	3	315	0.00	29.806 
18:15	77.2	77.2	78.7	48	56.0	0	2	315	0.00	29.809 
18:20	76.5	76.5	78.4	52	57.5	0	1	315	0.00	29.809 
18:25	76.3	76.3	78.2	51	56.8	0	4	315	0.00	29.809 
18:30	76.3	76.3	78.2	50	56.3	1	3	292	0.00	29.812 
18:35	76.7	76.7	78.4	49	56.1	0	2	315	0.00	29.812 
18:40	76.7	76.7	78.4	47	54.9	1	3	270	0.00	29.812 
18:45	76.7	76.7	78.4	48	55.5	0	2	270	0.00	29.812 
18:50	76.5	76.5	78.3	47	54.7	1	3	292	0.00	29.812 
18:55	76.5	76.5	78.3	48	55.3	1	3	292	0.00	29.812 
19:00	76.5	76.5	78.3	47	54.7	1	3	292	0.00	29.814 
19:05	76.3	76.3	78.1	46	54.0	0	2	292	0.00	29.814 
19:10	76.3	76.3	78.1	46	54.0	0	1	292	0.00	29.814 
19:15	76.3	76.3	78.2	47	54.6	0	2	292	0.00	29.817 
19:20	76.1	76.1	78.0	46	53.8	1	3	292	0.00	29.817 
19:25	76.0	76.0	78.0	47	54.3	1	3	292	0.00	29.817 
19:30	75.8	75.8	78.0	50	55.8	0	1	292	0.00	29.821 
19:35	75.6	75.6	77.9	49	55.1	0	1	292	0.00	29.821 
19:40	75.4	75.4	77.8	49	54.9	0	1	292	0.00	29.821 
19:45	75.3	75.3	77.7	50	55.4	0	1	292	0.00	29.826 
19:50	75.3	75.3	77.7	48	54.2	0	1	292	0.00	29.826 
19:55	74.9	74.9	74.9	50	55.0	0	1	292	0.00	29.826 
20:00	74.7	74.7	74.7	49	54.3	1	2	292	0.00	29.832 
20:05	74.6	74.6	74.6	48	53.6	1	2	292	0.00	29.832 
20:10	74.4	74.4	74.4	49	54.0	0	2	292	0.00	29.832 
20:15	74.0	74.0	74.0	50	54.2	0	1	158	0.00	29.836 
20:20	73.7	73.7	73.7	51	54.4	0	1	158	0.00	29.836 
20:25	73.5	73.5	73.5	51	54.2	0	1	158	0.00	29.836 
20:30	73.2	73.2	73.2	51	54.0	0	3	248	0.00	29.846 
20:35	72.8	72.8	72.8	52	54.1	0	2	248	0.00	29.846 
20:40	72.5	72.5	72.5	52	53.9	0	1	248	0.00	29.846 
20:45	72.1	72.1	72.1	52	53.5	0	1	270	0.00	29.849 
20:50	72.0	72.0	72.0	52	53.4	0	1	270	0.00	29.849 
20:55	71.6	71.6	71.6	53	53.5	0	1	270	0.00	29.849 
21:00	71.3	71.3	71.3	54	53.8	0	1	270	0.00	29.854 
21:05	70.9	70.9	70.9	54	53.4	0	1	270	0.00	29.854 
21:10	70.8	70.8	70.8	54	53.3	0	1	270	0.00	29.854 
21:15	70.4	70.4	70.4	54	52.9	0	0	---	0.00	29.861 
21:20	70.1	70.1	70.1	55	53.2	0	1	270	0.00	29.861 
21:25	69.8	69.8	69.8	55	52.9	0	2	270	0.00	29.861 
21:30	69.6	69.6	69.6	54	52.2	0	2	270	0.00	29.873 
21:35	69.6	69.6	69.6	55	52.7	0	1	270	0.00	29.873 
21:40	69.3	69.3	69.3	56	52.9	0	0	---	0.00	29.873 
21:45	68.9	68.9	68.9	57	53.0	0	0	---	0.00	29.880 
21:50	68.8	68.8	68.8	58	53.4	0	0	---	0.00	29.880 
21:55	68.4	68.4	68.4	58	53.0	0	1	270	0.00	29.880 
22:00	68.1	68.1	68.1	58	52.8	0	0	---	0.00	29.880 
22:05	67.9	67.9	67.9	58	52.6	0	1	270	0.00	29.880 
22:10	67.8	67.8	67.8	59	52.9	0	0	---	0.00	29.880 
22:15	67.4	67.4	67.4	59	52.6	0	0	---	0.00	29.889 
22:20	67.3	67.3	67.3	59	52.5	0	0	---	0.00	29.889 
22:25	67.1	67.1	67.1	59	52.3	0	0	---	0.00	29.889 
22:30	66.9	66.9	66.9	60	52.6	0	0	---	0.00	29.894 
22:35	66.6	66.6	66.6	62	53.2	0	0	---	0.00	29.894 
22:40	66.1	66.1	66.1	62	52.7	0	0	---	0.00	29.894 
22:45	65.8	65.8	65.8	65	53.7	0	0	---	0.00	29.897 
22:50	65.3	65.3	65.3	65	53.2	0	0	---	0.00	29.897 
22:55	65.0	65.0	65.0	66	53.4	0	0	---	0.00	29.897 
23:00	64.5	64.5	64.5	67	53.3	0	0	---	0.00	29.896 
23:05	64.2	64.2	64.2	69	53.8	0	0	---	0.00	29.896 
23:10	63.7	63.7	63.7	70	53.7	0	0	---	0.00	29.896 
23:15	63.4	63.4	63.4	71	53.8	0	0	---	0.00	29.897 
23:20	62.9	62.9	62.9	70	53.0	0	0	---	0.00	29.897 
23:25	62.6	62.6	62.6	70	52.7	0	0	---	0.00	29.897 
23:30	62.4	62.4	62.4	71	52.9	0	0	---	0.00	29.896 
23:35	62.1	62.1	62.1	71	52.6	0	0	---	0.00	29.896 
23:40	61.8	61.8	61.8	73	53.0	0	0	---	0.00	29.896 
23:45	61.6	61.6	61.6	74	53.2	0	0	---	0.00	29.889 
23:50	61.5	61.5	61.5	74	53.1	0	0	---	0.00	29.889 
23:55	61.3	61.3	61.3	75	53.3	0	0	---	0.00	29.889 

CoCoRaHS
IN-AL-39
A2 Web Hosting
Creative Commons License
GoDaddy
search engine by freefind advanced

loaded 2018-11-21 01:28:32 • last modified 2010-11-18 10:43:29
Privacy PolicyDisclaimer
• wx.awcolley.com is powered by PmWiki v.2002016 •
• all content (unless otherwise noted) © 2018 A W Colley